sensor_id;sensor_type;location;lat;lon;timestamp;P1;durP1;ratioP1;P2;durP2;ratioP2
7783;SDS011;19359;51.402;6.778;2023-04-25T00:01:54;599.05;;;122.38;;
7783;SDS011;19359;51.402;6.778;2023-04-25T00:04:21;616.45;;;128.73;;
7783;SDS011;19359;51.402;6.778;2023-04-25T00:06:49;610.65;;;127.65;;
7783;SDS011;19359;51.402;6.778;2023-04-25T00:09:18;599.00;;;128.35;;
7783;SDS011;19359;51.402;6.778;2023-04-25T00:11:45;599.38;;;123.45;;
7783;SDS011;19359;51.402;6.778;2023-04-25T00:14:13;591.58;;;124.03;;
7783;SDS011;19359;51.402;6.778;2023-04-25T00:16:42;600.35;;;125.15;;
7783;SDS011;19359;51.402;6.778;2023-04-25T00:19:10;602.58;;;123.93;;
7783;SDS011;19359;51.402;6.778;2023-04-25T00:21:38;583.78;;;121.75;;
7783;SDS011;19359;51.402;6.778;2023-04-25T00:24:05;593.75;;;125.82;;
7783;SDS011;19359;51.402;6.778;2023-04-25T00:26:34;583.17;;;124.07;;
7783;SDS011;19359;51.402;6.778;2023-04-25T00:29:02;559.20;;;122.22;;
7783;SDS011;19359;51.402;6.778;2023-04-25T00:31:29;580.25;;;122.40;;
7783;SDS011;19359;51.402;6.778;2023-04-25T00:33:56;566.40;;;120.32;;
7783;SDS011;19359;51.402;6.778;2023-04-25T00:36:23;504.00;;;113.53;;
7783;SDS011;19359;51.402;6.778;2023-04-25T00:38:50;523.67;;;121.03;;
7783;SDS011;19359;51.402;6.778;2023-04-25T00:41:19;522.38;;;121.55;;
7783;SDS011;19359;51.402;6.778;2023-04-25T00:43:48;502.00;;;113.75;;
7783;SDS011;19359;51.402;6.778;2023-04-25T00:46:15;503.23;;;113.18;;
7783;SDS011;19359;51.402;6.778;2023-04-25T00:48:42;522.42;;;114.47;;
7783;SDS011;19359;51.402;6.778;2023-04-25T00:51:09;524.20;;;113.75;;
7783;SDS011;19359;51.402;6.778;2023-04-25T00:53:40;538.60;;;118.05;;
7783;SDS011;19359;51.402;6.778;2023-04-25T00:56:07;538.78;;;118.25;;
7783;SDS011;19359;51.402;6.778;2023-04-25T00:58:34;532.63;;;115.45;;
7783;SDS011;19359;51.402;6.778;2023-04-25T01:01:03;548.03;;;119.10;;
7783;SDS011;19359;51.402;6.778;2023-04-25T01:03:31;560.15;;;121.22;;
7783;SDS011;19359;51.402;6.778;2023-04-25T01:06:00;562.90;;;121.47;;
7783;SDS011;19359;51.402;6.778;2023-04-25T01:08:27;558.35;;;119.57;;
7783;SDS011;19359;51.402;6.778;2023-04-25T01:10:55;562.55;;;122.07;;
7783;SDS011;19359;51.402;6.778;2023-04-25T01:13:22;564.03;;;119.97;;
7783;SDS011;19359;51.402;6.778;2023-04-25T01:15:49;553.55;;;117.35;;
7783;SDS011;19359;51.402;6.778;2023-04-25T01:18:18;549.20;;;126.10;;
7783;SDS011;19359;51.402;6.778;2023-04-25T01:20:46;548.42;;;113.78;;
7783;SDS011;19359;51.402;6.778;2023-04-25T01:23:16;551.63;;;121.13;;
7783;SDS011;19359;51.402;6.778;2023-04-25T01:25:44;551.03;;;117.72;;
7783;SDS011;19359;51.402;6.778;2023-04-25T01:28:12;549.67;;;117.60;;
7783;SDS011;19359;51.402;6.778;2023-04-25T01:30:40;548.55;;;122.18;;
7783;SDS011;19359;51.402;6.778;2023-04-25T01:33:08;532.28;;;119.90;;
7783;SDS011;19359;51.402;6.778;2023-04-25T01:35:35;515.35;;;118.75;;
7783;SDS011;19359;51.402;6.778;2023-04-25T01:38:02;482.58;;;112.97;;
7783;SDS011;19359;51.402;6.778;2023-04-25T01:40:31;478.05;;;109.07;;
7783;SDS011;19359;51.402;6.778;2023-04-25T01:42:59;498.45;;;113.70;;
7783;SDS011;19359;51.402;6.778;2023-04-25T01:45:26;505.02;;;113.15;;
7783;SDS011;19359;51.402;6.778;2023-04-25T01:47:53;499.45;;;114.68;;
7783;SDS011;19359;51.402;6.778;2023-04-25T01:50:24;495.58;;;111.18;;
7783;SDS011;19359;51.402;6.778;2023-04-25T01:52:51;511.85;;;116.32;;
7783;SDS011;19359;51.402;6.778;2023-04-25T01:55:18;521.88;;;115.45;;
7783;SDS011;19359;51.402;6.778;2023-04-25T01:57:47;521.17;;;115.32;;
7783;SDS011;19359;51.402;6.778;2023-04-25T02:00:14;521.15;;;116.47;;
7783;SDS011;19359;51.402;6.778;2023-04-25T02:02:41;531.50;;;115.03;;
7783;SDS011;19359;51.402;6.778;2023-04-25T02:05:08;539.33;;;122.88;;
7783;SDS011;19359;51.402;6.778;2023-04-25T02:07:35;522.97;;;117.03;;
7783;SDS011;19359;51.402;6.778;2023-04-25T02:10:02;503.40;;;117.22;;
7783;SDS011;19359;51.402;6.778;2023-04-25T02:12:30;516.42;;;113.05;;
7783;SDS011;19359;51.402;6.778;2023-04-25T02:14:58;525.55;;;117.15;;
7783;SDS011;19359;51.402;6.778;2023-04-25T02:17:25;559.25;;;118.75;;
7783;SDS011;19359;51.402;6.778;2023-04-25T02:19:52;592.47;;;128.00;;
7783;SDS011;19359;51.402;6.778;2023-04-25T02:22:19;583.63;;;121.60;;
7783;SDS011;19359;51.402;6.778;2023-04-25T02:24:46;580.42;;;123.65;;
7783;SDS011;19359;51.402;6.778;2023-04-25T02:27:13;576.22;;;124.00;;
7783;SDS011;19359;51.402;6.778;2023-04-25T02:29:40;597.17;;;122.95;;
7783;SDS011;19359;51.402;6.778;2023-04-25T02:32:09;349.52;;;104.10;;
7783;SDS011;19359;51.402;6.778;2023-04-25T02:34:36;536.75;;;115.18;;
7783;SDS011;19359;51.402;6.778;2023-04-25T02:37:04;550.20;;;121.22;;
7783;SDS011;19359;51.402;6.778;2023-04-25T02:39:31;569.38;;;120.50;;
7783;SDS011;19359;51.402;6.778;2023-04-25T02:41:58;605.03;;;123.80;;
7783;SDS011;19359;51.402;6.778;2023-04-25T02:44:26;593.15;;;124.68;;
7783;SDS011;19359;51.402;6.778;2023-04-25T02:46:52;591.03;;;126.85;;
7783;SDS011;19359;51.402;6.778;2023-04-25T02:49:21;580.40;;;124.55;;
7783;SDS011;19359;51.402;6.778;2023-04-25T02:51:47;605.38;;;126.65;;
7783;SDS011;19359;51.402;6.778;2023-04-25T02:54:14;584.17;;;119.10;;
7783;SDS011;19359;51.402;6.778;2023-04-25T02:56:42;580.15;;;123.10;;
7783;SDS011;19359;51.402;6.778;2023-04-25T02:59:09;581.70;;;124.30;;
7783;SDS011;19359;51.402;6.778;2023-04-25T03:01:36;571.67;;;122.60;;
7783;SDS011;19359;51.402;6.778;2023-04-25T03:04:03;530.75;;;113.97;;
7783;SDS011;19359;51.402;6.778;2023-04-25T03:06:32;542.08;;;121.07;;
7783;SDS011;19359;51.402;6.778;2023-04-25T03:08:59;545.30;;;117.63;;
7783;SDS011;19359;51.402;6.778;2023-04-25T03:11:26;533.97;;;114.38;;
7783;SDS011;19359;51.402;6.778;2023-04-25T03:13:53;544.92;;;116.72;;
7783;SDS011;19359;51.402;6.778;2023-04-25T03:16:20;554.58;;;119.93;;
7783;SDS011;19359;51.402;6.778;2023-04-25T03:18:47;562.00;;;121.72;;
7783;SDS011;19359;51.402;6.778;2023-04-25T03:21:15;543.28;;;113.85;;
7783;SDS011;19359;51.402;6.778;2023-04-25T03:23:44;549.25;;;118.07;;
7783;SDS011;19359;51.402;6.778;2023-04-25T03:26:11;539.85;;;121.65;;
7783;SDS011;19359;51.402;6.778;2023-04-25T03:28:38;518.40;;;117.47;;
7783;SDS011;19359;51.402;6.778;2023-04-25T03:31:05;525.13;;;117.15;;
7783;SDS011;19359;51.402;6.778;2023-04-25T03:33:32;530.97;;;121.28;;
7783;SDS011;19359;51.402;6.778;2023-04-25T03:35:59;572.35;;;120.97;;
7783;SDS011;19359;51.402;6.778;2023-04-25T03:38:27;563.58;;;119.40;;
7783;SDS011;19359;51.402;6.778;2023-04-25T03:40:55;554.78;;;117.35;;
7783;SDS011;19359;51.402;6.778;2023-04-25T03:43:22;572.15;;;119.50;;
7783;SDS011;19359;51.402;6.778;2023-04-25T03:45:49;575.88;;;123.55;;
7783;SDS011;19359;51.402;6.778;2023-04-25T03:48:17;592.88;;;121.88;;
7783;SDS011;19359;51.402;6.778;2023-04-25T03:50:46;571.92;;;123.20;;
7783;SDS011;19359;51.402;6.778;2023-04-25T03:53:13;586.17;;;121.90;;
7783;SDS011;19359;51.402;6.778;2023-04-25T03:55:40;556.38;;;118.55;;
7783;SDS011;19359;51.402;6.778;2023-04-25T03:58:08;555.58;;;115.68;;
7783;SDS011;19359;51.402;6.778;2023-04-25T04:00:35;539.20;;;115.43;;
7783;SDS011;19359;51.402;6.778;2023-04-25T04:03:02;546.40;;;116.03;;
7783;SDS011;19359;51.402;6.778;2023-04-25T04:05:30;559.83;;;119.68;;
7783;SDS011;19359;51.402;6.778;2023-04-25T04:07:57;561.30;;;117.72;;
7783;SDS011;19359;51.402;6.778;2023-04-25T04:10:25;563.60;;;118.25;;
7783;SDS011;19359;51.402;6.778;2023-04-25T04:12:52;550.30;;;114.30;;
7783;SDS011;19359;51.402;6.778;2023-04-25T04:15:20;545.25;;;114.57;;
7783;SDS011;19359;51.402;6.778;2023-04-25T04:17:47;520.70;;;111.40;;
7783;SDS011;19359;51.402;6.778;2023-04-25T04:20:15;522.40;;;113.88;;
7783;SDS011;19359;51.402;6.778;2023-04-25T04:22:42;521.30;;;114.60;;
7783;SDS011;19359;51.402;6.778;2023-04-25T04:25:09;535.67;;;111.90;;
7783;SDS011;19359;51.402;6.778;2023-04-25T04:27:37;518.83;;;109.63;;
7783;SDS011;19359;51.402;6.778;2023-04-25T04:30:06;519.88;;;113.13;;
7783;SDS011;19359;51.402;6.778;2023-04-25T04:32:34;520.55;;;113.88;;
7783;SDS011;19359;51.402;6.778;2023-04-25T04:35:02;512.95;;;109.95;;
7783;SDS011;19359;51.402;6.778;2023-04-25T04:37:31;507.10;;;107.03;;
7783;SDS011;19359;51.402;6.778;2023-04-25T04:39:58;511.20;;;112.22;;
7783;SDS011;19359;51.402;6.778;2023-04-25T04:42:30;503.08;;;107.03;;
7783;SDS011;19359;51.402;6.778;2023-04-25T04:44:57;531.72;;;111.95;;
7783;SDS011;19359;51.402;6.778;2023-04-25T04:47:26;498.30;;;111.20;;
7783;SDS011;19359;51.402;6.778;2023-04-25T04:49:57;462.42;;;99.72;;
7783;SDS011;19359;51.402;6.778;2023-04-25T04:52:23;479.63;;;103.70;;
7783;SDS011;19359;51.402;6.778;2023-04-25T04:54:50;499.25;;;107.28;;
7783;SDS011;19359;51.402;6.778;2023-04-25T04:57:17;546.95;;;111.28;;
7783;SDS011;19359;51.402;6.778;2023-04-25T04:59:44;508.90;;;108.68;;
7783;SDS011;19359;51.402;6.778;2023-04-25T05:02:10;453.75;;;101.18;;
7783;SDS011;19359;51.402;6.778;2023-04-25T05:04:37;436.27;;;106.97;;
7783;SDS011;19359;51.402;6.778;2023-04-25T05:07:05;418.65;;;98.22;;
7783;SDS011;19359;51.402;6.778;2023-04-25T05:09:32;423.60;;;96.45;;
7783;SDS011;19359;51.402;6.778;2023-04-25T05:11:59;264.55;;;82.07;;
7783;SDS011;19359;51.402;6.778;2023-04-25T05:14:26;508.60;;;110.68;;
7783;SDS011;19359;51.402;6.778;2023-04-25T05:16:53;492.02;;;114.63;;
7783;SDS011;19359;51.402;6.778;2023-04-25T05:19:20;510.13;;;107.80;;
7783;SDS011;19359;51.402;6.778;2023-04-25T05:21:46;85.38;;;51.03;;
7783;SDS011;19359;51.402;6.778;2023-04-25T05:24:14;9.30;;;2.42;;
7783;SDS011;19359;51.402;6.778;2023-04-25T05:26:41;8.35;;;3.72;;
7783;SDS011;19359;51.402;6.778;2023-04-25T05:29:08;11.48;;;3.70;;
7783;SDS011;19359;51.402;6.778;2023-04-25T05:31:35;23.10;;;4.07;;
7783;SDS011;19359;51.402;6.778;2023-04-25T05:34:02;9.50;;;3.22;;
7783;SDS011;19359;51.402;6.778;2023-04-25T05:36:29;11.52;;;3.33;;
7783;SDS011;19359;51.402;6.778;2023-04-25T05:38:57;8.73;;;3.28;;
7783;SDS011;19359;51.402;6.778;2023-04-25T05:41:25;11.70;;;2.45;;
7783;SDS011;19359;51.402;6.778;2023-04-25T05:43:52;23.15;;;3.80;;
7783;SDS011;19359;51.402;6.778;2023-04-25T05:46:18;12.68;;;4.57;;
7783;SDS011;19359;51.402;6.778;2023-04-25T05:48:46;19.00;;;3.45;;
7783;SDS011;19359;51.402;6.778;2023-04-25T05:51:13;11.77;;;3.30;;
7783;SDS011;19359;51.402;6.778;2023-04-25T05:53:39;9.32;;;2.97;;
7783;SDS011;19359;51.402;6.778;2023-04-25T05:56:06;19.27;;;3.40;;
7783;SDS011;19359;51.402;6.778;2023-04-25T05:58:34;6.03;;;4.18;;
7783;SDS011;19359;51.402;6.778;2023-04-25T06:01:01;8.88;;;3.83;;
7783;SDS011;19359;51.402;6.778;2023-04-25T06:03:28;36.83;;;33.25;;
7783;SDS011;19359;51.402;6.778;2023-04-25T06:05:55;12.70;;;6.03;;
7783;SDS011;19359;51.402;6.778;2023-04-25T06:08:22;8.43;;;4.55;;
7783;SDS011;19359;51.402;6.778;2023-04-25T06:10:48;7.50;;;5.30;;
7783;SDS011;19359;51.402;6.778;2023-04-25T06:13:15;16.35;;;4.40;;
7783;SDS011;19359;51.402;6.778;2023-04-25T06:15:43;9.75;;;3.88;;
7783;SDS011;19359;51.402;6.778;2023-04-25T06:18:10;16.35;;;3.83;;
7783;SDS011;19359;51.402;6.778;2023-04-25T06:20:36;11.50;;;8.23;;
7783;SDS011;19359;51.402;6.778;2023-04-25T06:23:04;9.77;;;3.00;;
7783;SDS011;19359;51.402;6.778;2023-04-25T06:25:30;21.23;;;6.70;;
7783;SDS011;19359;51.402;6.778;2023-04-25T06:27:57;9.27;;;3.80;;
7783;SDS011;19359;51.402;6.778;2023-04-25T06:30:24;9.88;;;3.10;;
7783;SDS011;19359;51.402;6.778;2023-04-25T06:32:52;4.15;;;2.55;;
7783;SDS011;19359;51.402;6.778;2023-04-25T06:35:20;10.80;;;2.72;;
7783;SDS011;19359;51.402;6.778;2023-04-25T06:37:47;10.07;;;3.45;;
7783;SDS011;19359;51.402;6.778;2023-04-25T06:40:14;6.93;;;3.17;;
7783;SDS011;19359;51.402;6.778;2023-04-25T06:42:42;7.80;;;1.77;;
7783;SDS011;19359;51.402;6.778;2023-04-25T06:45:09;6.57;;;2.63;;
7783;SDS011;19359;51.402;6.778;2023-04-25T06:47:36;13.35;;;2.65;;
7783;SDS011;19359;51.402;6.778;2023-04-25T06:50:05;10.93;;;2.28;;
7783;SDS011;19359;51.402;6.778;2023-04-25T06:52:32;9.38;;;2.20;;
7783;SDS011;19359;51.402;6.778;2023-04-25T06:54:59;9.85;;;2.20;;
7783;SDS011;19359;51.402;6.778;2023-04-25T06:57:26;19.10;;;3.95;;
7783;SDS011;19359;51.402;6.778;2023-04-25T06:59:52;10.55;;;2.15;;
7783;SDS011;19359;51.402;6.778;2023-04-25T07:02:19;13.77;;;3.00;;
7783;SDS011;19359;51.402;6.778;2023-04-25T07:04:46;10.43;;;2.70;;
7783;SDS011;19359;51.402;6.778;2023-04-25T07:07:14;10.35;;;2.70;;
7783;SDS011;19359;51.402;6.778;2023-04-25T07:09:42;19.30;;;3.47;;
7783;SDS011;19359;51.402;6.778;2023-04-25T07:12:08;15.85;;;3.25;;
7783;SDS011;19359;51.402;6.778;2023-04-25T07:14:35;6.85;;;3.00;;
7783;SDS011;19359;51.402;6.778;2023-04-25T07:17:02;8.02;;;1.95;;
7783;SDS011;19359;51.402;6.778;2023-04-25T07:19:31;11.73;;;4.10;;
7783;SDS011;19359;51.402;6.778;2023-04-25T07:21:58;8.50;;;3.00;;
7783;SDS011;19359;51.402;6.778;2023-04-25T07:24:26;9.43;;;3.28;;
7783;SDS011;19359;51.402;6.778;2023-04-25T07:26:53;9.25;;;5.57;;
7783;SDS011;19359;51.402;6.778;2023-04-25T07:29:20;12.93;;;3.97;;
7783;SDS011;19359;51.402;6.778;2023-04-25T07:31:46;9.10;;;6.93;;
7783;SDS011;19359;51.402;6.778;2023-04-25T07:34:13;7.35;;;4.40;;
7783;SDS011;19359;51.402;6.778;2023-04-25T07:36:40;11.85;;;4.82;;
7783;SDS011;19359;51.402;6.778;2023-04-25T07:39:07;10.25;;;2.55;;
7783;SDS011;19359;51.402;6.778;2023-04-25T07:41:35;15.30;;;4.85;;
7783;SDS011;19359;51.402;6.778;2023-04-25T07:44:02;6.05;;;2.60;;
7783;SDS011;19359;51.402;6.778;2023-04-25T07:46:29;7.45;;;2.35;;
7783;SDS011;19359;51.402;6.778;2023-04-25T07:48:56;6.13;;;4.15;;
7783;SDS011;19359;51.402;6.778;2023-04-25T07:51:23;11.40;;;3.03;;
7783;SDS011;19359;51.402;6.778;2023-04-25T07:53:50;12.88;;;2.83;;
7783;SDS011;19359;51.402;6.778;2023-04-25T07:56:17;10.95;;;2.65;;
7783;SDS011;19359;51.402;6.778;2023-04-25T07:58:46;9.60;;;3.47;;
7783;SDS011;19359;51.402;6.778;2023-04-25T08:01:13;10.02;;;3.55;;
7783;SDS011;19359;51.402;6.778;2023-04-25T08:03:39;10.32;;;3.95;;
7783;SDS011;19359;51.402;6.778;2023-04-25T08:06:06;9.63;;;5.07;;
7783;SDS011;19359;51.402;6.778;2023-04-25T08:08:33;10.20;;;2.72;;
7783;SDS011;19359;51.402;6.778;2023-04-25T08:11:00;5.13;;;2.17;;
7783;SDS011;19359;51.402;6.778;2023-04-25T08:13:26;5.30;;;2.92;;
7783;SDS011;19359;51.402;6.778;2023-04-25T08:15:54;9.40;;;2.72;;
7783;SDS011;19359;51.402;6.778;2023-04-25T08:18:21;14.00;;;3.22;;
7783;SDS011;19359;51.402;6.778;2023-04-25T08:20:48;7.07;;;1.90;;
7783;SDS011;19359;51.402;6.778;2023-04-25T08:23:15;5.00;;;1.70;;
7783;SDS011;19359;51.402;6.778;2023-04-25T08:25:42;11.90;;;4.25;;
7783;SDS011;19359;51.402;6.778;2023-04-25T08:28:08;24.17;;;21.50;;
7783;SDS011;19359;51.402;6.778;2023-04-25T08:30:36;38.20;;;34.63;;
7783;SDS011;19359;51.402;6.778;2023-04-25T08:33:04;19.05;;;17.30;;
7783;SDS011;19359;51.402;6.778;2023-04-25T08:35:31;11.75;;;7.35;;
7783;SDS011;19359;51.402;6.778;2023-04-25T08:37:58;33.85;;;30.92;;
7783;SDS011;19359;51.402;6.778;2023-04-25T08:40:26;87.53;;;75.25;;
7783;SDS011;19359;51.402;6.778;2023-04-25T08:42:55;227.18;;;122.93;;
7783;SDS011;19359;51.402;6.778;2023-04-25T08:45:23;40.53;;;37.03;;
7783;SDS011;19359;51.402;6.778;2023-04-25T08:47:52;69.80;;;63.13;;
7783;SDS011;19359;51.402;6.778;2023-04-25T08:50:23;333.45;;;123.97;;
7783;SDS011;19359;51.402;6.778;2023-04-25T08:52:51;592.72;;;162.70;;
7783;SDS011;19359;51.402;6.778;2023-04-25T08:55:20;609.78;;;158.82;;
7783;SDS011;19359;51.402;6.778;2023-04-25T08:57:47;465.85;;;149.88;;
7783;SDS011;19359;51.402;6.778;2023-04-25T09:00:15;377.33;;;136.07;;
7783;SDS011;19359;51.402;6.778;2023-04-25T09:02:44;394.67;;;140.63;;
7783;SDS011;19359;51.402;6.778;2023-04-25T09:05:12;442.33;;;138.27;;
7783;SDS011;19359;51.402;6.778;2023-04-25T09:07:41;503.00;;;151.13;;
7783;SDS011;19359;51.402;6.778;2023-04-25T09:10:08;541.42;;;155.82;;
7783;SDS011;19359;51.402;6.778;2023-04-25T09:12:35;501.05;;;151.05;;
7783;SDS011;19359;51.402;6.778;2023-04-25T09:15:06;496.30;;;151.65;;
7783;SDS011;19359;51.402;6.778;2023-04-25T09:17:33;530.88;;;152.85;;
7783;SDS011;19359;51.402;6.778;2023-04-25T09:20:05;497.38;;;153.80;;
7783;SDS011;19359;51.402;6.778;2023-04-25T09:22:33;523.40;;;161.80;;
7783;SDS011;19359;51.402;6.778;2023-04-25T09:25:03;492.00;;;166.25;;
7783;SDS011;19359;51.402;6.778;2023-04-25T09:27:31;508.92;;;169.63;;
7783;SDS011;19359;51.402;6.778;2023-04-25T09:29:58;525.35;;;173.85;;
7783;SDS011;19359;51.402;6.778;2023-04-25T09:32:26;542.80;;;174.00;;
7783;SDS011;19359;51.402;6.778;2023-04-25T09:34:53;522.10;;;173.07;;
7783;SDS011;19359;51.402;6.778;2023-04-25T09:37:21;600.33;;;187.13;;
7783;SDS011;19359;51.402;6.778;2023-04-25T09:39:50;520.30;;;187.27;;
7783;SDS011;19359;51.402;6.778;2023-04-25T09:42:21;485.58;;;189.65;;
7783;SDS011;19359;51.402;6.778;2023-04-25T09:44:48;495.83;;;194.80;;
7783;SDS011;19359;51.402;6.778;2023-04-25T09:47:18;516.97;;;190.50;;
7783;SDS011;19359;51.402;6.778;2023-04-25T09:49:46;535.90;;;188.07;;
7783;SDS011;19359;51.402;6.778;2023-04-25T09:52:14;521.28;;;185.63;;
7783;SDS011;19359;51.402;6.778;2023-04-25T09:54:42;522.85;;;180.07;;
7783;SDS011;19359;51.402;6.778;2023-04-25T09:57:13;518.53;;;185.52;;
7783;SDS011;19359;51.402;6.778;2023-04-25T09:59:44;512.63;;;186.43;;
7783;SDS011;19359;51.402;6.778;2023-04-25T10:02:12;509.65;;;192.40;;
7783;SDS011;19359;51.402;6.778;2023-04-25T10:04:39;511.67;;;190.57;;
7783;SDS011;19359;51.402;6.778;2023-04-25T10:07:07;522.10;;;196.95;;
7783;SDS011;19359;51.402;6.778;2023-04-25T10:09:36;529.20;;;192.27;;
7783;SDS011;19359;51.402;6.778;2023-04-25T10:12:04;530.95;;;196.88;;
7783;SDS011;19359;51.402;6.778;2023-04-25T10:14:32;534.13;;;199.00;;
7783;SDS011;19359;51.402;6.778;2023-04-25T10:17:01;523.70;;;189.30;;
7783;SDS011;19359;51.402;6.778;2023-04-25T10:19:28;535.47;;;202.57;;
7783;SDS011;19359;51.402;6.778;2023-04-25T10:21:56;518.13;;;203.98;;
7783;SDS011;19359;51.402;6.778;2023-04-25T10:24:29;516.92;;;203.85;;
7783;SDS011;19359;51.402;6.778;2023-04-25T10:26:56;508.73;;;192.30;;
7783;SDS011;19359;51.402;6.778;2023-04-25T10:29:24;519.40;;;193.80;;
7783;SDS011;19359;51.402;6.778;2023-04-25T10:31:51;542.60;;;188.23;;
7783;SDS011;19359;51.402;6.778;2023-04-25T10:34:19;549.08;;;189.80;;
7783;SDS011;19359;51.402;6.778;2023-04-25T10:36:51;540.78;;;178.23;;
7783;SDS011;19359;51.402;6.778;2023-04-25T10:39:22;557.85;;;176.65;;
7783;SDS011;19359;51.402;6.778;2023-04-25T10:41:55;558.80;;;179.65;;
7783;SDS011;19359;51.402;6.778;2023-04-25T10:44:23;572.28;;;186.45;;
7783;SDS011;19359;51.402;6.778;2023-04-25T10:46:54;593.03;;;188.90;;
7783;SDS011;19359;51.402;6.778;2023-04-25T10:49:30;606.92;;;199.50;;
7783;SDS011;19359;51.402;6.778;2023-04-25T10:52:10;644.85;;;202.00;;
7783;SDS011;19359;51.402;6.778;2023-04-25T10:54:40;585.67;;;193.18;;
7783;SDS011;19359;51.402;6.778;2023-04-25T10:57:08;618.38;;;208.40;;
7783;SDS011;19359;51.402;6.778;2023-04-25T10:59:53;623.38;;;204.40;;
7783;SDS011;19359;51.402;6.778;2023-04-25T11:02:20;601.70;;;197.70;;
7783;SDS011;19359;51.402;6.778;2023-04-25T11:04:53;587.65;;;188.00;;
7783;SDS011;19359;51.402;6.778;2023-04-25T11:07:22;707.97;;;192.40;;
7783;SDS011;19359;51.402;6.778;2023-04-25T11:09:50;688.85;;;183.48;;
7783;SDS011;19359;51.402;6.778;2023-04-25T11:12:17;663.80;;;178.13;;
7783;SDS011;19359;51.402;6.778;2023-04-25T11:14:44;532.15;;;163.15;;
7783;SDS011;19359;51.402;6.778;2023-04-25T11:17:11;525.20;;;157.98;;
7783;SDS011;19359;51.402;6.778;2023-04-25T11:19:38;532.22;;;161.23;;
7783;SDS011;19359;51.402;6.778;2023-04-25T11:22:06;570.90;;;165.23;;
7783;SDS011;19359;51.402;6.778;2023-04-25T11:24:33;535.75;;;160.90;;
7783;SDS011;19359;51.402;6.778;2023-04-25T11:27:01;514.72;;;153.38;;
7783;SDS011;19359;51.402;6.778;2023-04-25T11:29:30;538.85;;;157.35;;
7783;SDS011;19359;51.402;6.778;2023-04-25T11:31:57;575.85;;;162.90;;
7783;SDS011;19359;51.402;6.778;2023-04-25T11:34:26;571.55;;;163.73;;
7783;SDS011;19359;51.402;6.778;2023-04-25T11:36:55;575.85;;;166.75;;
7783;SDS011;19359;51.402;6.778;2023-04-25T11:39:24;593.20;;;170.00;;
7783;SDS011;19359;51.402;6.778;2023-04-25T11:41:52;575.30;;;165.98;;
7783;SDS011;19359;51.402;6.778;2023-04-25T11:44:19;590.08;;;165.88;;
7783;SDS011;19359;51.402;6.778;2023-04-25T11:46:47;531.25;;;156.15;;
7783;SDS011;19359;51.402;6.778;2023-04-25T11:49:14;505.17;;;154.15;;
7783;SDS011;19359;51.402;6.778;2023-04-25T11:51:43;580.15;;;156.13;;
7783;SDS011;19359;51.402;6.778;2023-04-25T11:54:11;554.00;;;155.27;;
7783;SDS011;19359;51.402;6.778;2023-04-25T11:56:41;558.85;;;159.40;;
7783;SDS011;19359;51.402;6.778;2023-04-25T11:59:08;500.45;;;143.10;;
7783;SDS011;19359;51.402;6.778;2023-04-25T12:01:35;534.45;;;142.05;;
7783;SDS011;19359;51.402;6.778;2023-04-25T12:04:12;533.83;;;146.50;;
7783;SDS011;19359;51.402;6.778;2023-04-25T12:06:41;516.80;;;142.32;;
7783;SDS011;19359;51.402;6.778;2023-04-25T12:09:09;510.67;;;145.60;;
7783;SDS011;19359;51.402;6.778;2023-04-25T12:11:42;528.35;;;145.00;;
7783;SDS011;19359;51.402;6.778;2023-04-25T12:14:09;599.45;;;149.77;;
7783;SDS011;19359;51.402;6.778;2023-04-25T12:16:40;600.78;;;152.18;;
7783;SDS011;19359;51.402;6.778;2023-04-25T12:19:07;585.95;;;154.18;;
7783;SDS011;19359;51.402;6.778;2023-04-25T12:21:34;584.08;;;155.55;;
7783;SDS011;19359;51.402;6.778;2023-04-25T12:24:11;576.83;;;156.88;;
7783;SDS011;19359;51.402;6.778;2023-04-25T12:26:47;599.85;;;156.40;;
7783;SDS011;19359;51.402;6.778;2023-04-25T12:29:15;605.85;;;160.48;;
7783;SDS011;19359;51.402;6.778;2023-04-25T12:31:43;598.65;;;170.52;;
7783;SDS011;19359;51.402;6.778;2023-04-25T12:34:10;635.42;;;180.75;;
7783;SDS011;19359;51.402;6.778;2023-04-25T12:36:37;667.05;;;186.93;;
7783;SDS011;19359;51.402;6.778;2023-04-25T12:39:04;638.40;;;197.25;;
7783;SDS011;19359;51.402;6.778;2023-04-25T12:41:31;668.45;;;214.50;;
7783;SDS011;19359;51.402;6.778;2023-04-25T12:43:59;674.20;;;221.13;;
7783;SDS011;19359;51.402;6.778;2023-04-25T12:46:26;695.50;;;227.90;;
7783;SDS011;19359;51.402;6.778;2023-04-25T12:48:53;721.45;;;241.48;;
7783;SDS011;19359;51.402;6.778;2023-04-25T12:51:21;722.78;;;245.82;;
7783;SDS011;19359;51.402;6.778;2023-04-25T12:53:49;714.92;;;246.43;;
7783;SDS011;19359;51.402;6.778;2023-04-25T12:56:17;725.50;;;254.85;;
7783;SDS011;19359;51.402;6.778;2023-04-25T12:58:44;741.65;;;267.05;;
7783;SDS011;19359;51.402;6.778;2023-04-25T13:01:12;739.85;;;268.52;;
7783;SDS011;19359;51.402;6.778;2023-04-25T13:03:38;744.38;;;274.17;;
7783;SDS011;19359;51.402;6.778;2023-04-25T13:06:06;739.17;;;263.52;;
7783;SDS011;19359;51.402;6.778;2023-04-25T13:08:33;733.88;;;258.63;;
7783;SDS011;19359;51.402;6.778;2023-04-25T13:11:00;687.50;;;255.45;;
7783;SDS011;19359;51.402;6.778;2023-04-25T13:13:26;643.85;;;228.43;;
7783;SDS011;19359;51.402;6.778;2023-04-25T13:15:53;633.83;;;215.63;;
7783;SDS011;19359;51.402;6.778;2023-04-25T13:18:21;673.28;;;209.43;;
7783;SDS011;19359;51.402;6.778;2023-04-25T13:20:51;669.25;;;192.77;;
7783;SDS011;19359;51.402;6.778;2023-04-25T13:23:18;662.33;;;191.90;;
7783;SDS011;19359;51.402;6.778;2023-04-25T13:25:45;648.90;;;190.65;;
7783;SDS011;19359;51.402;6.778;2023-04-25T13:28:12;657.00;;;189.18;;
7783;SDS011;19359;51.402;6.778;2023-04-25T13:30:39;654.17;;;187.88;;
7783;SDS011;19359;51.402;6.778;2023-04-25T13:33:06;672.35;;;193.07;;
7783;SDS011;19359;51.402;6.778;2023-04-25T13:35:35;678.88;;;189.80;;
7783;SDS011;19359;51.402;6.778;2023-04-25T13:38:03;701.60;;;198.75;;
7783;SDS011;19359;51.402;6.778;2023-04-25T13:40:30;705.22;;;213.50;;
7783;SDS011;19359;51.402;6.778;2023-04-25T13:42:58;724.53;;;229.20;;
7783;SDS011;19359;51.402;6.778;2023-04-25T13:45:25;744.45;;;267.35;;
7783;SDS011;19359;51.402;6.778;2023-04-25T13:47:51;754.78;;;284.35;;
7783;SDS011;19359;51.402;6.778;2023-04-25T13:50:18;757.80;;;314.25;;
7783;SDS011;19359;51.402;6.778;2023-04-25T13:52:47;760.03;;;328.15;;
7783;SDS011;19359;51.402;6.778;2023-04-25T13:55:14;744.75;;;301.25;;
7783;SDS011;19359;51.402;6.778;2023-04-25T13:57:40;752.75;;;298.73;;
7783;SDS011;19359;51.402;6.778;2023-04-25T14:00:08;727.13;;;272.10;;
7783;SDS011;19359;51.402;6.778;2023-04-25T14:02:35;693.00;;;261.25;;
7783;SDS011;19359;51.402;6.778;2023-04-25T14:05:03;697.28;;;249.02;;
7783;SDS011;19359;51.402;6.778;2023-04-25T14:07:30;714.75;;;242.00;;
7783;SDS011;19359;51.402;6.778;2023-04-25T14:09:58;703.45;;;229.00;;
7783;SDS011;19359;51.402;6.778;2023-04-25T14:12:25;712.67;;;230.25;;
7783;SDS011;19359;51.402;6.778;2023-04-25T14:14:52;721.67;;;231.40;;
7783;SDS011;19359;51.402;6.778;2023-04-25T14:17:19;714.92;;;219.20;;
7783;SDS011;19359;51.402;6.778;2023-04-25T14:19:45;729.08;;;233.85;;
7783;SDS011;19359;51.402;6.778;2023-04-25T14:22:13;731.58;;;244.05;;